Chilik Southeast Airfield

Jump to: basic info | weather | comments

Related pages: nearby airports | nearby navaids

Basic information (top)

Location: lon 43.223598, lat 78.732399, elev 4,497 ft / 1,371 m msl
Status: small_airport

Weather (top)

Current conditions for Almaty Airport 74nm (138km) W (rec'd 2014/09/21 11:30Z):

UAAA 211130Z 11002MPS 060V140 9999 SCT100 BKN200 18/M01 Q1019 R88/65D NOSIG

Airport forecast for Almaty Airport 74nm (138km) W (rec'd 2014/09/21 12:00Z):

TAF UAAA 211100Z 2112/2212 16005MPS 9999 SCT050CB BKN100 TX21/2208Z TN05/2201Z 
      TEMPO 2113/2118 2000 FU 
      BECMG 2204/2205 04006MPS

Latest comments (top)

Spelling: OK oK its Kazakhstan♄, so you have a ... [read]

Airfield: I came across this airfield on Google, ... [read]

More... (top)

See also NOTAMs and nearby airports and navaids, or visit the Chilik Southeast Airfield page at the main OurAirports website..